createdAt,value
2018-10-05T00:00:18.580Z,7.50
2018-10-05T00:01:18.611Z,6.20
2018-10-05T00:02:18.554Z,5.10
2018-10-05T00:03:18.553Z,5.90
2018-10-05T00:04:18.535Z,4.80
2018-10-05T00:05:18.518Z,4.70
2018-10-05T00:06:18.560Z,6.80
2018-10-05T00:07:18.500Z,4.90
2018-10-05T00:08:18.488Z,7.70
2018-10-05T00:09:18.475Z,8.00
2018-10-05T00:10:18.465Z,5.40
2018-10-05T00:11:18.481Z,5.40
2018-10-05T00:12:18.441Z,5.10
2018-10-05T00:13:18.450Z,5.90
2018-10-05T00:14:18.474Z,7.20
2018-10-05T00:15:18.434Z,6.90
2018-10-05T00:16:18.404Z,6.20
2018-10-05T00:17:18.388Z,6.40
2018-10-05T00:18:18.382Z,6.30
2018-10-05T00:19:18.364Z,5.50
2018-10-05T00:20:18.444Z,5.60
2018-10-05T00:21:18.339Z,5.70
2018-10-05T00:22:18.359Z,4.40
2018-10-05T00:23:18.323Z,5.10
2018-10-05T00:24:18.304Z,4.50
2018-10-05T00:25:18.295Z,4.80
2018-10-05T00:26:18.288Z,5.30
2018-10-05T00:27:18.309Z,6.10
2018-10-05T00:28:18.269Z,5.20
2018-10-05T00:29:18.249Z,4.20
2018-10-05T00:30:18.241Z,4.30
2018-10-05T00:31:18.235Z,4.90
2018-10-05T00:32:18.257Z,5.50
2018-10-05T00:33:18.215Z,6.70
2018-10-05T00:34:18.207Z,12.70
2018-10-05T00:35:18.191Z,5.40
2018-10-05T00:36:18.174Z,6.30
2018-10-05T00:37:18.207Z,7.70
2018-10-05T00:38:18.158Z,6.40
2018-10-05T00:39:18.140Z,3.40
2018-10-05T00:40:18.134Z,5.40
2018-10-05T00:41:18.129Z,5.60
2018-10-05T00:42:18.133Z,5.40
2018-10-05T00:43:18.101Z,6.60
2018-10-05T00:44:18.089Z,6.80
2018-10-05T00:45:18.097Z,5.30
2018-10-05T00:46:18.067Z,6.00
2018-10-05T00:47:18.061Z,6.00
2018-10-05T00:48:18.035Z,4.40
2018-10-05T00:49:18.066Z,4.60
2018-10-05T00:50:18.018Z,4.60
2018-10-05T00:51:18.009Z,5.10
2018-10-05T00:52:17.990Z,6.20
2018-10-05T00:53:17.992Z,5.40
2018-10-05T00:54:18.015Z,7.80
2018-10-05T00:55:17.968Z,4.00
2018-10-05T00:56:17.958Z,4.00
2018-10-05T00:57:17.941Z,6.50
2018-10-05T00:58:17.931Z,7.70
2018-10-05T00:59:17.941Z,4.60
2018-10-05T01:00:17.897Z,6.60
2018-10-05T01:01:17.898Z,5.40
2018-10-05T01:02:17.890Z,4.50
2018-10-05T01:03:17.895Z,4.20
2018-10-05T01:04:17.863Z,4.00
2018-10-05T01:05:17.845Z,5.80
2018-10-05T01:06:17.859Z,7.50
2018-10-05T01:07:17.834Z,8.90
2018-10-05T01:08:17.819Z,7.10
2018-10-05T01:09:17.807Z,6.60
2018-10-05T01:10:17.790Z,6.20
2018-10-05T01:11:17.829Z,6.10
2018-10-05T01:12:17.770Z,4.90
2018-10-05T01:13:17.756Z,6.60
2018-10-05T01:14:17.748Z,5.50
2018-10-05T01:15:17.731Z,8.10
2018-10-05T01:16:17.765Z,5.70
2018-10-05T01:17:17.726Z,6.50
2018-10-05T01:18:17.700Z,5.30
2018-10-05T01:19:17.689Z,3.40
2018-10-05T01:20:17.681Z,4.80
2018-10-05T01:21:17.703Z,7.10
2018-10-05T01:22:17.658Z,5.50
2018-10-05T01:23:17.648Z,6.10
2018-10-05T01:24:17.649Z,6.20
2018-10-05T01:25:17.624Z,7.00
2018-10-05T01:26:17.650Z,10.60
2018-10-05T01:27:17.596Z,8.30
2018-10-05T01:28:17.585Z,8.00
2018-10-05T01:29:17.598Z,7.20
2018-10-05T01:30:17.568Z,9.00
2018-10-05T01:31:17.580Z,5.50
2018-10-05T01:32:17.547Z,6.50
2018-10-05T01:33:17.542Z,9.10
2018-10-05T01:34:17.523Z,7.80
2018-10-05T01:35:17.518Z,6.90
2018-10-05T01:36:17.528Z,6.60
2018-10-05T01:37:17.501Z,7.70
2018-10-05T01:38:17.485Z,8.00
2018-10-05T01:39:17.473Z,7.40
2018-10-05T01:40:17.453Z,6.10
2018-10-05T01:41:17.447Z,8.50
2018-10-05T01:42:17.458Z,9.40
2018-10-05T01:43:17.417Z,6.50
2018-10-05T01:44:17.451Z,5.60
2018-10-05T01:45:17.396Z,6.80
2018-10-05T01:46:17.388Z,5.50
2018-10-05T01:47:17.388Z,6.50
2018-10-05T01:48:17.368Z,5.80
2018-10-05T01:49:17.386Z,7.10
2018-10-05T01:50:17.338Z,5.60
2018-10-05T01:51:17.331Z,6.50
2018-10-05T01:52:17.323Z,4.70
2018-10-05T01:53:17.307Z,5.90
2018-10-05T01:54:17.315Z,5.30
2018-10-05T01:55:17.279Z,6.90
2018-10-05T01:56:17.304Z,8.10
2018-10-05T01:57:17.264Z,6.90
2018-10-05T01:58:17.261Z,9.60
2018-10-05T01:59:17.248Z,7.20
2018-10-05T02:00:17.231Z,7.60
2018-10-05T02:01:17.241Z,8.10
2018-10-05T02:02:17.200Z,6.00
2018-10-05T02:03:17.190Z,8.20
2018-10-05T02:04:17.180Z,7.40
2018-10-05T02:05:17.184Z,8.90
2018-10-05T02:06:17.183Z,7.20
2018-10-05T02:07:17.152Z,6.40
2018-10-05T02:08:17.177Z,5.70
2018-10-05T02:09:17.148Z,7.00
2018-10-05T02:10:17.119Z,6.10
2018-10-05T02:11:17.145Z,6.30
2018-10-05T02:12:17.124Z,9.10
2018-10-05T02:13:17.083Z,7.50
2018-10-05T02:14:17.075Z,7.70
2018-10-05T02:15:17.068Z,5.10
2018-10-05T02:16:17.081Z,4.90
2018-10-05T02:17:17.038Z,6.80
2018-10-05T02:18:17.028Z,5.60
2018-10-05T02:19:17.014Z,6.10
2018-10-05T02:20:17.031Z,6.70
2018-10-05T02:21:16.989Z,5.00
2018-10-05T02:22:16.985Z,6.90
2018-10-05T02:23:16.972Z,5.40
2018-10-05T02:24:16.983Z,5.20
2018-10-05T02:25:16.954Z,5.70
2018-10-05T02:26:16.930Z,4.60
2018-10-05T02:27:16.938Z,6.40
2018-10-05T02:28:16.916Z,4.50
2018-10-05T02:29:16.898Z,5.50
2018-10-05T02:30:16.921Z,4.20
2018-10-05T02:31:16.886Z,5.00
2018-10-05T02:32:16.868Z,4.60
2018-10-05T02:33:16.895Z,3.40
2018-10-05T02:34:16.846Z,6.40
2018-10-05T02:35:16.851Z,3.50
2018-10-05T02:36:16.829Z,5.80
2018-10-05T02:37:16.863Z,4.00
2018-10-05T02:38:16.808Z,5.70
2018-10-05T02:39:16.788Z,3.50
2018-10-05T02:40:16.794Z,4.50
2018-10-05T02:41:16.807Z,4.40
2018-10-05T02:42:16.751Z,4.80
2018-10-05T02:43:16.759Z,5.40
2018-10-05T02:44:16.728Z,6.10
2018-10-05T02:45:16.721Z,5.20
2018-10-05T02:46:16.841Z,6.60
2018-10-05T02:47:16.704Z,3.30
2018-10-05T02:48:16.686Z,4.70
2018-10-05T02:49:16.698Z,3.30
2018-10-05T02:50:16.665Z,6.80
2018-10-05T02:51:16.652Z,4.30
2018-10-05T02:52:16.665Z,5.20
2018-10-05T02:53:16.626Z,5.00
2018-10-05T02:54:16.632Z,4.00
2018-10-05T02:55:16.643Z,6.40
2018-10-05T02:56:16.613Z,5.40
2018-10-05T02:57:16.595Z,4.60
2018-10-05T02:58:16.608Z,3.50
2018-10-05T02:59:16.575Z,6.50
2018-10-05T03:00:16.550Z,3.40
2018-10-05T03:01:16.542Z,4.10
2018-10-05T03:02:16.551Z,3.80
2018-10-05T03:03:16.515Z,4.40
2018-10-05T03:04:16.532Z,6.10
2018-10-05T03:05:16.498Z,4.70
2018-10-05T03:06:16.498Z,6.40
2018-10-05T03:07:16.505Z,4.90
2018-10-05T03:08:16.467Z,4.90
2018-10-05T03:09:16.456Z,5.20
2018-10-05T03:10:16.448Z,4.20
2018-10-05T03:11:16.429Z,6.60
2018-10-05T03:12:16.463Z,4.00
2018-10-05T03:13:16.404Z,5.10
2018-10-05T03:14:16.415Z,5.70
2018-10-05T03:15:16.381Z,4.30
2018-10-05T03:16:16.365Z,6.80
2018-10-05T03:17:16.356Z,6.60
2018-10-05T03:18:16.346Z,4.20
2018-10-05T03:19:16.379Z,6.40
2018-10-05T03:20:16.326Z,6.10
2018-10-05T03:21:16.315Z,5.10
2018-10-05T03:22:16.304Z,4.80
2018-10-05T03:23:16.293Z,6.70
2018-10-05T03:24:16.310Z,4.10
2018-10-05T03:25:16.277Z,6.10
2018-10-05T03:26:16.259Z,5.30
2018-10-05T03:27:16.249Z,4.90
2018-10-05T03:28:16.244Z,4.30
2018-10-05T03:29:16.273Z,3.60
2018-10-05T03:30:16.218Z,4.00
2018-10-05T03:31:16.205Z,3.80
2018-10-05T03:32:16.197Z,3.90
2018-10-05T03:33:16.187Z,3.90
2018-10-05T03:34:16.209Z,4.50
2018-10-05T03:35:16.166Z,5.70
2018-10-05T03:36:16.152Z,7.10
2018-10-05T03:37:16.135Z,5.20
2018-10-05T03:38:16.135Z,5.20
2018-10-05T03:39:16.147Z,5.20
2018-10-05T03:40:16.134Z,5.80
2018-10-05T03:41:16.098Z,6.30
2018-10-05T03:42:16.133Z,5.80
2018-10-05T03:43:16.067Z,4.70
2018-10-05T03:44:16.054Z,5.60
2018-10-05T03:45:16.084Z,5.10
2018-10-05T03:46:16.032Z,8.10
2018-10-05T03:47:16.030Z,6.10
2018-10-05T03:48:16.015Z,5.60
2018-10-05T03:49:16.004Z,5.90
2018-10-05T03:50:16.011Z,6.00
2018-10-05T03:51:15.983Z,4.90
2018-10-05T03:52:15.969Z,5.10
2018-10-05T03:53:16.007Z,4.50
2018-10-05T03:54:15.952Z,6.00
2018-10-05T03:55:15.936Z,5.80
2018-10-05T03:56:15.968Z,9.80
2018-10-05T03:57:15.930Z,7.80
2018-10-05T03:58:15.906Z,7.40
2018-10-05T03:59:15.941Z,5.70
2018-10-05T04:00:15.879Z,6.60
2018-10-05T04:01:15.897Z,6.30
2018-10-05T04:02:15.862Z,8.30
2018-10-05T04:03:15.858Z,4.80
2018-10-05T04:04:15.836Z,7.70
2018-10-05T04:05:15.825Z,5.70
2018-10-05T04:06:15.842Z,6.60
2018-10-05T04:07:15.812Z,5.60
2018-10-05T04:08:15.793Z,5.90
2018-10-05T04:09:15.801Z,5.30
2018-10-05T04:10:15.811Z,6.00
2018-10-05T04:11:15.795Z,6.30
2018-10-05T04:12:15.742Z,5.00
2018-10-05T04:13:15.769Z,7.20
2018-10-05T04:14:15.720Z,7.80
2018-10-05T04:15:15.739Z,6.80
2018-10-05T04:16:15.697Z,5.80
2018-10-05T04:17:15.701Z,7.70
2018-10-05T04:18:15.684Z,5.70
2018-10-05T04:19:15.669Z,6.00
2018-10-05T04:20:15.685Z,6.30
2018-10-05T04:21:15.652Z,5.70
2018-10-05T04:22:15.632Z,4.30
2018-10-05T04:23:15.632Z,4.90
2018-10-05T04:24:15.610Z,4.80
2018-10-05T04:25:15.633Z,5.00
2018-10-05T04:26:15.590Z,10.40
2018-10-05T04:27:15.586Z,8.80
2018-10-05T04:28:15.574Z,4.40
2018-10-05T04:29:15.557Z,4.00
2018-10-05T04:30:15.564Z,4.50
2018-10-05T04:31:15.541Z,5.10
2018-10-05T04:32:15.521Z,4.90
2018-10-05T04:33:15.520Z,4.60
2018-10-05T04:34:15.543Z,6.60
2018-10-05T04:35:15.491Z,8.30
2018-10-05T04:36:15.492Z,4.90
2018-10-05T04:37:15.475Z,5.20
2018-10-05T04:38:15.463Z,5.60
2018-10-05T04:39:15.445Z,5.60
2018-10-05T04:40:15.435Z,6.90
2018-10-05T04:41:15.544Z,5.40
2018-10-05T04:42:15.409Z,6.80
2018-10-05T04:43:15.417Z,5.10
2018-10-05T04:44:15.388Z,6.30
2018-10-05T04:45:15.404Z,7.00
2018-10-05T04:46:15.397Z,6.60
2018-10-05T04:47:15.359Z,4.90
2018-10-05T04:48:15.358Z,5.60
2018-10-05T04:49:15.362Z,6.00
2018-10-05T04:50:15.323Z,5.30
2018-10-05T04:51:15.341Z,5.80
2018-10-05T04:52:15.323Z,7.40
2018-10-05T04:53:15.294Z,7.30
2018-10-05T04:54:15.281Z,5.40
2018-10-05T04:55:15.273Z,6.00
2018-10-05T04:56:15.284Z,5.50
2018-10-05T04:57:15.277Z,6.90
2018-10-05T04:58:15.239Z,6.20
2018-10-05T04:59:15.218Z,6.50
2018-10-05T05:00:15.265Z,8.20
2018-10-05T05:01:15.202Z,6.60
2018-10-05T05:02:15.213Z,6.90
2018-10-05T05:03:15.172Z,5.40
2018-10-05T05:04:15.166Z,6.50
2018-10-05T05:05:15.173Z,6.40
2018-10-05T05:06:15.145Z,7.10
2018-10-05T05:07:15.165Z,9.40
2018-10-05T05:08:15.117Z,8.30
2018-10-05T05:09:15.108Z,8.10
2018-10-05T05:10:15.096Z,10.20
2018-10-05T05:11:15.090Z,9.10
2018-10-05T05:12:15.151Z,7.50
2018-10-05T05:13:15.079Z,5.30
2018-10-05T05:14:15.054Z,11.00
2018-10-05T05:15:15.059Z,6.40
2018-10-05T05:16:15.065Z,7.90
2018-10-05T05:17:15.048Z,6.90
2018-10-05T05:18:15.048Z,5.60
2018-10-05T05:19:15.001Z,7.60
2018-10-05T05:20:15.019Z,9.00
2018-10-05T05:21:14.981Z,5.50
2018-10-05T05:22:14.966Z,6.70
2018-10-05T05:23:14.954Z,6.40
2018-10-05T05:24:14.966Z,6.60
2018-10-05T05:25:14.936Z,8.50
2018-10-05T05:26:14.935Z,6.50
2018-10-05T05:27:14.909Z,8.40
2018-10-05T05:28:14.895Z,4.30
2018-10-05T05:29:14.923Z,7.30
2018-10-05T05:30:14.874Z,6.30
2018-10-05T05:31:14.868Z,8.70
2018-10-05T05:32:14.868Z,4.30
2018-10-05T05:33:14.842Z,4.50
2018-10-05T05:34:14.877Z,7.90
2018-10-05T05:35:14.821Z,6.20
2018-10-05T05:36:14.808Z,4.70
2018-10-05T05:37:14.796Z,7.60
2018-10-05T05:38:14.789Z,6.60
2018-10-05T05:39:14.818Z,5.70
2018-10-05T05:40:14.778Z,4.50
2018-10-05T05:41:14.752Z,6.30
2018-10-05T05:42:14.753Z,6.50
2018-10-05T05:43:14.732Z,6.80
2018-10-05T05:44:14.738Z,4.20
2018-10-05T05:45:14.757Z,5.00
2018-10-05T05:46:14.700Z,6.10
2018-10-05T05:47:14.703Z,6.60
2018-10-05T05:48:14.675Z,7.20
2018-10-05T05:49:14.659Z,7.10
2018-10-05T05:50:14.672Z,10.70
2018-10-05T05:51:14.639Z,7.40
2018-10-05T05:52:14.633Z,8.80
2018-10-05T05:53:14.625Z,8.20
2018-10-05T05:54:14.669Z,8.70
2018-10-05T05:55:14.624Z,8.40
2018-10-05T05:56:14.589Z,9.90
2018-10-05T05:57:14.577Z,9.40
2018-10-05T05:58:14.561Z,10.20
2018-10-05T05:59:14.559Z,9.10
2018-10-05T06:00:14.562Z,7.60
2018-10-05T06:01:14.540Z,8.90
2018-10-05T06:02:14.522Z,7.70
2018-10-05T06:03:14.514Z,8.40
2018-10-05T06:04:14.497Z,9.60
2018-10-05T06:05:14.514Z,8.10
2018-10-05T06:06:14.479Z,8.60
2018-10-05T06:07:14.462Z,11.00
2018-10-05T06:08:14.525Z,8.60
2018-10-05T06:09:14.438Z,7.80
2018-10-05T06:10:14.482Z,9.90
2018-10-05T06:11:14.415Z,8.70
2018-10-05T06:12:14.407Z,8.50
2018-10-05T06:13:14.402Z,8.60
2018-10-05T06:14:14.390Z,8.00
2018-10-05T06:15:14.404Z,8.40
2018-10-05T06:16:14.412Z,8.40
2018-10-05T06:17:14.352Z,9.80
2018-10-05T06:18:14.333Z,8.70
2018-10-05T06:19:14.326Z,7.80
2018-10-05T06:20:14.342Z,9.40
2018-10-05T06:21:14.304Z,10.80
2018-10-05T06:22:14.428Z,11.40
2018-10-05T06:23:14.287Z,9.10
2018-10-05T06:24:14.269Z,10.40
2018-10-05T06:25:14.288Z,10.90
2018-10-05T06:26:14.252Z,7.80
2018-10-05T06:27:14.278Z,8.40
2018-10-05T06:28:14.248Z,7.60
2018-10-05T06:29:14.211Z,6.30
2018-10-05T06:30:14.204Z,7.80
2018-10-05T06:31:14.262Z,7.60
2018-10-05T06:32:14.188Z,9.70
2018-10-05T06:33:14.193Z,9.70
2018-10-05T06:34:14.158Z,6.80
2018-10-05T06:35:14.141Z,8.70
2018-10-05T06:36:14.163Z,7.60
2018-10-05T06:37:14.146Z,7.80
2018-10-05T06:38:14.228Z,7.50
2018-10-05T06:39:14.151Z,8.20
2018-10-05T06:40:14.095Z,9.80
2018-10-05T06:41:14.105Z,8.90
2018-10-05T06:42:14.224Z,9.50
2018-10-05T06:43:14.052Z,9.80
2018-10-05T06:44:14.049Z,9.50
2018-10-05T06:45:14.035Z,9.20
2018-10-05T06:46:14.039Z,10.80
2018-10-05T06:47:14.032Z,10.10
2018-10-05T06:48:14.005Z,12.40
2018-10-05T06:49:13.993Z,9.60
2018-10-05T06:50:13.981Z,10.30
2018-10-05T06:51:13.972Z,11.10
2018-10-05T06:52:14.133Z,10.50
2018-10-05T06:53:13.999Z,9.60
2018-10-05T06:54:13.931Z,10.90
2018-10-05T06:55:13.921Z,12.50
2018-10-05T06:56:13.988Z,11.40
2018-10-05T06:57:13.897Z,13.80
2018-10-05T06:58:13.888Z,12.90
2018-10-05T06:59:13.877Z,11.40
2018-10-05T07:00:13.864Z,13.70
2018-10-05T07:01:13.882Z,16.20
2018-10-05T07:02:13.846Z,15.60
2018-10-05T07:03:13.835Z,15.30
2018-10-05T07:04:14.009Z,16.40
2018-10-05T07:05:13.804Z,14.30
2018-10-05T07:06:13.797Z,16.70
2018-10-05T07:07:13.785Z,14.80
2018-10-05T07:08:13.785Z,15.30
2018-10-05T07:09:13.781Z,12.70
2018-10-05T07:10:13.748Z,14.40
2018-10-05T07:11:13.742Z,15.30
2018-10-05T07:12:13.728Z,16.20
2018-10-05T07:13:13.720Z,15.00
2018-10-05T07:14:13.726Z,15.30
2018-10-05T07:15:13.691Z,13.30
2018-10-05T07:16:13.714Z,13.40
2018-10-05T07:17:13.856Z,16.20
2018-10-05T07:18:13.681Z,27.30
2018-10-05T07:19:13.646Z,19.10
2018-10-05T07:20:13.668Z,16.70
2018-10-05T07:21:13.734Z,17.40
2018-10-05T07:22:13.688Z,24.40
2018-10-05T07:23:13.608Z,21.50
2018-10-05T07:24:13.596Z,17.70
2018-10-05T07:25:13.599Z,13.60
2018-10-05T07:26:13.568Z,16.50
2018-10-05T07:27:13.564Z,15.20
2018-10-05T07:28:13.640Z,12.90
2018-10-05T07:29:13.534Z,11.80
2018-10-05T07:30:13.526Z,13.30
2018-10-05T07:31:13.525Z,14.10
2018-10-05T07:32:13.524Z,13.70
2018-10-05T07:33:13.499Z,13.70
2018-10-05T07:34:13.479Z,14.90
2018-10-05T07:35:13.476Z,10.00
2018-10-05T07:36:13.458Z,13.50
2018-10-05T07:37:13.540Z,10.90
2018-10-05T07:38:13.441Z,13.00
2018-10-05T07:39:13.434Z,12.30
2018-10-05T07:40:13.441Z,12.80
2018-10-05T07:41:13.398Z,12.20
2018-10-05T07:42:13.391Z,12.00
2018-10-05T07:43:13.378Z,12.00
2018-10-05T07:44:13.375Z,15.00
2018-10-05T07:45:13.388Z,11.20
2018-10-05T07:46:13.353Z,10.00
2018-10-05T07:47:13.374Z,12.60
2018-10-05T07:48:13.322Z,12.20
2018-10-05T07:49:13.309Z,9.90
2018-10-05T07:50:13.301Z,13.20
2018-10-05T07:51:13.291Z,11.30
2018-10-05T07:52:13.327Z,12.30
2018-10-05T07:53:13.281Z,14.20
2018-10-05T07:54:13.262Z,10.90
2018-10-05T07:55:13.245Z,11.10
2018-10-05T07:56:13.239Z,13.30
2018-10-05T07:57:13.244Z,11.10
2018-10-05T07:58:13.213Z,9.90
2018-10-05T07:59:13.213Z,11.00
2018-10-05T08:00:13.207Z,10.90
2018-10-05T08:01:13.180Z,9.50
2018-10-05T08:02:13.195Z,10.50
2018-10-05T08:03:13.253Z,10.50
2018-10-05T08:04:13.141Z,9.60
2018-10-05T08:05:13.130Z,8.30
2018-10-05T08:06:13.119Z,10.50
2018-10-05T08:07:13.148Z,10.50
2018-10-05T08:08:13.105Z,11.10
2018-10-05T08:09:13.092Z,11.10
2018-10-05T08:10:13.120Z,11.40
2018-10-05T08:11:13.088Z,10.20
2018-10-05T08:12:13.075Z,12.00
2018-10-05T08:13:13.049Z,10.20
2018-10-05T08:14:13.073Z,10.10
2018-10-05T08:15:13.028Z,9.60
2018-10-05T08:16:13.015Z,11.20
2018-10-05T08:17:13.013Z,11.80
2018-10-05T08:18:13.037Z,11.50
2018-10-05T08:19:13.052Z,9.10
2018-10-05T08:20:12.999Z,9.60
2018-10-05T08:21:12.952Z,10.00
2018-10-05T08:22:12.943Z,11.30
2018-10-05T08:23:12.932Z,12.10
2018-10-05T08:24:12.979Z,9.20
2018-10-05T08:25:12.940Z,10.30
2018-10-05T08:26:12.899Z,10.00
2018-10-05T08:27:13.136Z,9.50
2018-10-05T08:28:12.898Z,9.20
2018-10-05T08:29:12.875Z,9.40
2018-10-05T08:30:12.880Z,9.30
2018-10-05T08:31:12.842Z,11.30
2018-10-05T08:32:12.825Z,10.30
2018-10-05T08:33:12.817Z,8.00
2018-10-05T08:34:13.039Z,8.40
2018-10-05T08:35:12.794Z,8.80
2018-10-05T08:36:12.890Z,8.70
2018-10-05T08:37:12.773Z,9.20
2018-10-05T08:38:12.756Z,10.00
2018-10-05T08:39:12.761Z,9.80
2018-10-05T08:40:12.806Z,11.80
2018-10-05T08:41:12.729Z,8.80
2018-10-05T08:42:12.727Z,7.90
2018-10-05T08:43:12.703Z,10.30
2018-10-05T08:44:12.700Z,9.70
2018-10-05T08:45:12.678Z,10.20
2018-10-05T08:46:12.667Z,8.90
2018-10-05T08:47:12.696Z,9.10
2018-10-05T08:48:12.716Z,9.50
2018-10-05T08:49:12.638Z,7.50
2018-10-05T08:50:12.629Z,6.80
2018-10-05T08:51:12.617Z,7.70
2018-10-05T08:52:12.675Z,9.40
2018-10-05T08:53:12.605Z,9.30
2018-10-05T08:54:12.577Z,10.50
2018-10-05T08:55:12.569Z,9.20
2018-10-05T08:56:12.593Z,9.60
2018-10-05T08:57:12.581Z,8.10
2018-10-05T08:58:12.534Z,8.50
2018-10-05T08:59:12.518Z,9.10
2018-10-05T09:00:12.572Z,7.10
2018-10-05T09:01:12.504Z,7.70
2018-10-05T09:02:12.513Z,8.10
2018-10-05T09:03:12.485Z,7.90
2018-10-05T09:04:12.493Z,9.50
2018-10-05T09:05:12.457Z,8.20
2018-10-05T09:06:12.499Z,9.20
2018-10-05T09:07:12.436Z,8.60
2018-10-05T09:08:12.423Z,8.20
2018-10-05T09:09:12.448Z,6.90
2018-10-05T09:10:12.422Z,7.30
2018-10-05T09:11:12.493Z,7.20
2018-10-05T09:12:12.398Z,8.60
2018-10-05T09:13:12.504Z,7.90
2018-10-05T09:14:12.352Z,7.40
2018-10-05T09:15:12.339Z,10.10
2018-10-05T09:16:12.346Z,7.10
2018-10-05T09:17:12.340Z,10.50
2018-10-05T09:18:12.322Z,8.60
2018-10-05T09:19:12.297Z,9.10
2018-10-05T09:20:12.287Z,8.10
2018-10-05T09:21:12.299Z,8.70
2018-10-05T09:22:12.260Z,7.90
2018-10-05T09:23:12.272Z,8.60
2018-10-05T09:24:12.254Z,9.60
2018-10-05T09:25:12.240Z,8.20
2018-10-05T09:26:12.249Z,6.70
2018-10-05T09:27:12.217Z,6.40
2018-10-05T09:28:12.193Z,9.70
2018-10-05T09:29:12.198Z,8.20
2018-10-05T09:30:12.179Z,6.30
2018-10-05T09:31:12.191Z,7.80
2018-10-05T09:32:12.150Z,7.30
2018-10-05T09:33:12.134Z,8.60
2018-10-05T09:34:12.145Z,7.50
2018-10-05T09:35:12.112Z,9.00
2018-10-05T09:36:12.108Z,7.70
2018-10-05T09:37:12.130Z,9.50
2018-10-05T09:38:12.095Z,7.30
2018-10-05T09:39:12.069Z,7.80
2018-10-05T09:40:12.068Z,10.30
2018-10-05T09:41:12.059Z,7.00
2018-10-05T09:42:12.065Z,10.20
2018-10-05T09:43:12.027Z,7.40
2018-10-05T09:44:12.015Z,8.20
2018-10-05T09:45:12.031Z,8.00
2018-10-05T09:46:11.991Z,6.90
2018-10-05T09:47:12.010Z,6.20
2018-10-05T09:48:11.977Z,6.40
2018-10-05T09:49:11.961Z,6.50
2018-10-05T09:50:11.971Z,9.00
2018-10-05T09:51:11.937Z,7.20
2018-10-05T09:52:11.970Z,6.90
2018-10-05T09:53:11.924Z,9.30
2018-10-05T09:54:11.897Z,8.70
2018-10-05T09:55:11.898Z,9.70
2018-10-05T09:56:11.882Z,7.40
2018-10-05T09:57:11.887Z,5.40
2018-10-05T09:58:11.855Z,6.90
2018-10-05T09:59:11.880Z,7.90
2018-10-05T10:00:11.963Z,7.50
2018-10-05T10:01:11.825Z,5.80
2018-10-05T10:02:11.817Z,7.10
2018-10-05T10:03:11.801Z,6.30
2018-10-05T10:04:11.793Z,6.00
2018-10-05T10:05:11.801Z,5.50
2018-10-05T10:06:11.790Z,7.80
2018-10-05T10:07:11.753Z,6.30
2018-10-05T10:08:11.783Z,8.00
2018-10-05T10:09:11.753Z,8.20
2018-10-05T10:10:11.732Z,7.10
2018-10-05T10:11:11.737Z,6.80
2018-10-05T10:12:11.705Z,7.20
2018-10-05T10:13:11.688Z,6.90
2018-10-05T10:14:11.674Z,5.60
2018-10-05T10:15:11.673Z,8.90
2018-10-05T10:16:11.689Z,6.10
2018-10-05T10:17:11.639Z,7.70
2018-10-05T10:18:11.636Z,8.30
2018-10-05T10:19:11.622Z,6.60
2018-10-05T10:20:11.612Z,7.50
2018-10-05T10:21:11.653Z,6.10
2018-10-05T10:22:11.583Z,6.40
2018-10-05T10:23:11.574Z,9.10
2018-10-05T10:24:11.568Z,7.50
2018-10-05T10:25:11.551Z,6.20
2018-10-05T10:26:11.561Z,7.10
2018-10-05T10:27:11.612Z,5.70
2018-10-05T10:28:11.632Z,5.50
2018-10-05T10:29:11.587Z,6.30
2018-10-05T10:30:11.498Z,9.30
2018-10-05T10:31:11.483Z,9.20
2018-10-05T10:32:11.493Z,8.20
2018-10-05T10:33:11.463Z,7.30
2018-10-05T10:34:11.461Z,6.60
2018-10-05T10:35:11.443Z,8.60
2018-10-05T10:36:11.456Z,8.20
2018-10-05T10:37:11.419Z,8.30
2018-10-05T10:38:11.433Z,7.80
2018-10-05T10:39:11.400Z,5.70
2018-10-05T10:40:11.387Z,8.50
2018-10-05T10:41:11.410Z,5.60
2018-10-05T10:42:11.364Z,7.40
2018-10-05T10:43:11.371Z,6.30
2018-10-05T10:44:11.338Z,4.50
2018-10-05T10:45:11.354Z,10.30
2018-10-05T10:46:11.332Z,7.30
2018-10-05T10:47:11.302Z,7.10
2018-10-05T10:48:11.332Z,8.70
2018-10-05T10:49:11.293Z,6.50
2018-10-05T10:50:11.275Z,7.60
2018-10-05T10:51:11.260Z,8.50
2018-10-05T10:52:11.253Z,8.00
2018-10-05T10:53:11.353Z,6.60
2018-10-05T10:54:11.275Z,8.00
2018-10-05T10:55:11.324Z,7.80
2018-10-05T10:56:11.238Z,7.70
2018-10-05T10:57:11.196Z,7.10
2018-10-05T10:58:11.223Z,6.80
2018-10-05T10:59:11.213Z,7.10
2018-10-05T11:00:11.157Z,7.40
2018-10-05T11:01:11.146Z,7.20
2018-10-05T11:02:11.197Z,7.10
2018-10-05T11:03:11.167Z,8.70
2018-10-05T11:04:11.188Z,5.80
2018-10-05T11:05:11.102Z,5.90
2018-10-05T11:06:11.109Z,6.60
2018-10-05T11:07:11.110Z,7.40
2018-10-05T11:08:11.091Z,8.30
2018-10-05T11:09:11.067Z,8.30
2018-10-05T11:10:11.061Z,6.40
2018-10-05T11:11:11.120Z,6.70
2018-10-05T11:12:11.027Z,5.20
2018-10-05T11:13:11.053Z,6.60
2018-10-05T11:14:11.036Z,6.60
2018-10-05T11:15:10.992Z,5.30
2018-10-05T11:16:11.007Z,8.80
2018-10-05T11:17:11.038Z,6.10
2018-10-05T11:18:10.959Z,6.20
2018-10-05T11:19:10.980Z,6.80
2018-10-05T11:20:10.935Z,5.20
2018-10-05T11:21:10.931Z,6.10
2018-10-05T11:22:10.962Z,5.00
2018-10-05T11:23:10.923Z,5.90
2018-10-05T11:24:10.914Z,6.50
2018-10-05T11:25:10.890Z,7.50
2018-10-05T11:26:10.900Z,6.60
2018-10-05T11:27:10.865Z,6.00
2018-10-05T11:28:10.850Z,5.10
2018-10-05T11:29:10.842Z,5.30
2018-10-05T11:30:10.832Z,6.90
2018-10-05T11:31:10.858Z,5.20
2018-10-05T11:32:10.811Z,5.60
2018-10-05T11:33:10.804Z,7.30
2018-10-05T11:34:10.785Z,5.30
2018-10-05T11:35:10.869Z,3.90
2018-10-05T11:36:10.758Z,6.40
2018-10-05T11:37:10.746Z,6.00
2018-10-05T11:38:10.755Z,5.60
2018-10-05T11:39:10.749Z,5.30
2018-10-05T11:40:10.719Z,6.60
2018-10-05T11:41:10.704Z,5.30
2018-10-05T11:42:10.686Z,4.20
2018-10-05T11:43:10.717Z,3.70
2018-10-05T11:44:10.671Z,5.00
2018-10-05T11:45:10.656Z,6.10
2018-10-05T11:46:10.691Z,4.40
2018-10-05T11:47:10.682Z,5.10
2018-10-05T11:48:10.628Z,5.70
2018-10-05T11:49:10.616Z,4.10
2018-10-05T11:50:10.645Z,7.20
2018-10-05T11:51:10.588Z,4.10
2018-10-05T11:52:10.591Z,7.00
2018-10-05T11:53:10.563Z,4.30
2018-10-05T11:54:10.561Z,3.90
2018-10-05T11:55:10.570Z,3.60
2018-10-05T11:56:10.560Z,5.80
2018-10-05T11:57:10.527Z,5.50
2018-10-05T11:58:10.510Z,4.40
2018-10-05T11:59:10.514Z,5.00
2018-10-05T12:00:10.490Z,3.80
2018-10-05T12:01:10.501Z,3.90
2018-10-05T12:02:10.502Z,4.20
2018-10-05T12:03:10.481Z,4.80
2018-10-05T12:04:10.444Z,5.10
2018-10-05T12:05:10.511Z,4.00
2018-10-05T12:06:10.442Z,3.70
2018-10-05T12:07:10.408Z,5.90
2018-10-05T12:08:10.435Z,3.30
2018-10-05T12:09:10.384Z,5.80
2018-10-05T12:10:10.402Z,5.00
2018-10-05T12:11:10.364Z,4.50
2018-10-05T12:12:10.350Z,3.30
2018-10-05T12:13:10.362Z,3.30
2018-10-05T12:14:10.343Z,4.30
2018-10-05T12:15:10.318Z,3.60
2018-10-05T12:16:10.311Z,4.60
2018-10-05T12:17:10.296Z,5.20
2018-10-05T12:18:10.319Z,4.30
2018-10-05T12:19:10.275Z,3.90
2018-10-05T12:20:10.273Z,4.80
2018-10-05T12:21:10.257Z,3.80
2018-10-05T12:22:10.257Z,4.90
2018-10-05T12:23:10.255Z,3.00
2018-10-05T12:24:10.225Z,2.10
2018-10-05T12:25:10.221Z,6.80
2018-10-05T12:26:10.224Z,3.00
2018-10-05T12:27:10.184Z,4.10
2018-10-05T12:28:10.175Z,4.30
2018-10-05T12:29:10.172Z,3.90
2018-10-05T12:30:10.284Z,3.70
2018-10-05T12:31:10.145Z,4.30
2018-10-05T12:32:10.161Z,4.10
2018-10-05T12:33:10.152Z,3.60
2018-10-05T12:34:10.110Z,2.70
2018-10-05T12:35:10.142Z,2.90
2018-10-05T12:36:10.091Z,3.70
2018-10-05T12:37:10.151Z,3.30
2018-10-05T12:38:10.073Z,2.80
2018-10-05T12:39:10.105Z,3.90
2018-10-05T12:40:10.063Z,2.40
2018-10-05T12:41:10.105Z,3.10
2018-10-05T12:42:10.142Z,4.10
2018-10-05T12:43:10.074Z,2.50
2018-10-05T12:44:10.006Z,2.60
2018-10-05T12:45:10.306Z,2.80
2018-10-05T12:46:09.979Z,2.80
2018-10-05T12:47:10.169Z,2.60
2018-10-05T12:48:10.008Z,5.30
2018-10-05T12:49:10.794Z,2.10
2018-10-05T12:50:10.018Z,3.60
2018-10-05T12:51:10.101Z,3.40
2018-10-05T12:52:09.912Z,3.00
2018-10-05T12:53:09.902Z,3.20
2018-10-05T12:54:09.911Z,2.30
2018-10-05T12:55:09.877Z,2.90
2018-10-05T12:56:09.899Z,2.00
2018-10-05T12:57:09.850Z,3.20
2018-10-05T12:58:09.933Z,3.20
2018-10-05T12:59:09.850Z,2.90
2018-10-05T13:00:09.854Z,4.10
2018-10-05T13:01:09.801Z,3.10
2018-10-05T13:02:09.797Z,3.70
2018-10-05T13:03:09.783Z,2.80
2018-10-05T13:04:09.790Z,2.90
2018-10-05T13:05:09.773Z,4.00
2018-10-05T13:06:09.775Z,4.10
2018-10-05T13:07:09.735Z,5.20
2018-10-05T13:08:09.750Z,2.80
2018-10-05T13:09:09.730Z,2.90
2018-10-05T13:10:09.704Z,5.30
2018-10-05T13:11:09.817Z,2.10
2018-10-05T13:12:09.680Z,2.40
2018-10-05T13:13:09.688Z,3.10
2018-10-05T13:14:09.658Z,3.30